CFG3PK EDDF-EDDH
Flight info
| Callsign | CFG3PK |
|---|---|
| Flight time | N/A |
| Altitude | 35000 |
| Route | MARUN3W/25C MARUN Y150 TOLGI DCT SAS/N0438F340 P605 NOLGO NOLGO6A |
| Aircraft | A320/M-SDE3FGHIJ1LORVWXYZ/LB1 |
Departure
| Time | 2026-05-07 14:41 |
|---|---|
| Airport | Frankfurt Main Airport (EDDF) |
Arrival
| Time | N/A |
|---|---|
| Airport | Hamburg Helmut Schmidt Airport (EDDH) |
| Time | Latitude | Longitude | Altitude | Speed | Heading |
|---|---|---|---|---|---|
| 2026-05-07 13:39 | 50.04696 | 8.57102 | 362 ft | 0 kts | 115° |
| 2026-05-07 13:39 | 50.04698 | 8.57094 | 364 ft | 0 kts | 115° |
| 2026-05-07 14:29 | 50.04699 | 8.57089 | 356 ft | 3 kts | 115° |
| 2026-05-07 14:29 | 50.04710 | 8.57052 | 359 ft | 4 kts | 116° |
| 2026-05-07 14:29 | 50.04721 | 8.57021 | 358 ft | 4 kts | 134° |
| 2026-05-07 14:30 | 50.04742 | 8.57004 | 361 ft | 4 kts | 186° |
| 2026-05-07 14:30 | 50.04767 | 8.57016 | 361 ft | 4 kts | 205° |
| 2026-05-07 14:30 | 50.04774 | 8.57020 | 360 ft | 0 kts | 205° |
| 2026-05-07 14:35 | 50.04758 | 8.57009 | 359 ft | 6 kts | 205° |
| 2026-05-07 14:35 | 50.04717 | 8.56980 | 358 ft | 7 kts | 205° |
| 2026-05-07 14:35 | 50.04672 | 8.56947 | 358 ft | 9 kts | 205° |
| 2026-05-07 14:35 | 50.04597 | 8.56908 | 356 ft | 12 kts | 193° |
| 2026-05-07 14:36 | 50.04521 | 8.56880 | 359 ft | 11 kts | 193° |
| 2026-05-07 14:36 | 50.04444 | 8.56854 | 363 ft | 13 kts | 189° |
| 2026-05-07 14:36 | 50.04348 | 8.56829 | 360 ft | 11 kts | 191° |
| 2026-05-07 14:36 | 50.04281 | 8.56859 | 360 ft | 10 kts | 116° |
| 2026-05-07 14:37 | 50.04295 | 8.56983 | 359 ft | 15 kts | 70° |
| 2026-05-07 14:37 | 50.04357 | 8.57241 | 366 ft | 9 kts | 69° |
| 2026-05-07 14:37 | 50.04383 | 8.57348 | 361 ft | 14 kts | 69° |
| 2026-05-07 14:38 | 50.04414 | 8.57480 | 365 ft | 12 kts | 70° |
| 2026-05-07 14:38 | 50.04423 | 8.57592 | 364 ft | 8 kts | 109° |
| 2026-05-07 14:38 | 50.04395 | 8.57648 | 365 ft | 6 kts | 146° |
| 2026-05-07 14:38 | 50.04353 | 8.57676 | 365 ft | 10 kts | 158° |
| 2026-05-07 14:39 | 50.04281 | 8.57699 | 362 ft | 10 kts | 201° |
| 2026-05-07 14:39 | 50.04263 | 8.57654 | 362 ft | 0 kts | 251° |
| 2026-05-07 14:40 | 50.04254 | 8.57611 | 365 ft | 22 kts | 251° |
| 2026-05-07 14:40 | 50.04101 | 8.56971 | 363 ft | 100 kts | 249° |
| 2026-05-07 14:41 | 50.03784 | 8.55643 | 373 ft | 157 kts | 250° |
| 2026-05-07 14:41 | 50.03412 | 8.54053 | 1096 ft | 155 kts | 250° |
| 2026-05-07 14:41 | 50.03042 | 8.52466 | 1790 ft | 165 kts | 252° |
| 2026-05-07 14:41 | 50.02623 | 8.50665 | 2277 ft | 184 kts | 248° |
| 2026-05-07 14:42 | 50.01775 | 8.49010 | 2729 ft | 207 kts | 218° |
| 2026-05-07 14:42 | 50.00479 | 8.48031 | 3418 ft | 214 kts | 195° |
| 2026-05-07 14:42 | 49.98999 | 8.47678 | 4214 ft | 216 kts | 189° |
| 2026-05-07 14:42 | 49.97505 | 8.47357 | 5017 ft | 217 kts | 190° |
| 2026-05-07 14:43 | 49.96008 | 8.47013 | 5789 ft | 218 kts | 195° |
| 2026-05-07 14:43 | 49.94480 | 8.46359 | 6212 ft | 241 kts | 198° |
| 2026-05-07 14:43 | 49.92838 | 8.45574 | 6944 ft | 251 kts | 203° |
| 2026-05-07 14:43 | 49.91527 | 8.44211 | 7673 ft | 254 kts | 231° |
| 2026-05-07 14:44 | 49.90717 | 8.41719 | 8657 ft | 253 kts | 259° |
| 2026-05-07 14:44 | 49.90762 | 8.38999 | 9570 ft | 256 kts | 288° |
| 2026-05-07 14:44 | 49.91671 | 8.36642 | 10458 ft | 259 kts | 316° |
| 2026-05-07 14:44 | 49.93218 | 8.35197 | 11305 ft | 265 kts | 336° |
| 2026-05-07 14:45 | 49.94998 | 8.34046 | 11696 ft | 289 kts | 336° |
| 2026-05-07 14:45 | 49.96929 | 8.32795 | 12018 ft | 313 kts | 336° |
| 2026-05-07 14:45 | 49.99003 | 8.31448 | 12449 ft | 331 kts | 336° |
| 2026-05-07 14:45 | 50.01155 | 8.30055 | 13199 ft | 337 kts | 338° |
| 2026-05-07 14:46 | 50.03433 | 8.29073 | 13986 ft | 344 kts | 350° |
| 2026-05-07 14:46 | 50.05805 | 8.28884 | 14699 ft | 350 kts | 2° |
| 2026-05-07 14:46 | 50.08216 | 8.29536 | 15412 ft | 356 kts | 15° |
| 2026-05-07 14:46 | 50.10582 | 8.30768 | 16135 ft | 360 kts | 17° |
| 2026-05-07 14:47 | 50.12971 | 8.32027 | 16847 ft | 365 kts | 17° |
| 2026-05-07 14:47 | 50.15390 | 8.33298 | 17556 ft | 369 kts | 17° |
| 2026-05-07 14:47 | 50.17835 | 8.34583 | 18258 ft | 373 kts | 17° |
| 2026-05-07 14:47 | 50.20308 | 8.35883 | 18873 ft | 377 kts | 17° |
| 2026-05-07 14:48 | 50.21875 | 8.36704 | 19262 ft | 379 kts | 17° |
| 2026-05-07 14:48 | 50.23118 | 8.37329 | 19578 ft | 381 kts | 16° |
| 2026-05-07 14:48 | 50.25645 | 8.38613 | 20204 ft | 384 kts | 17° |
| 2026-05-07 14:48 | 50.28134 | 8.39919 | 20823 ft | 387 kts | 17° |
| 2026-05-07 14:49 | 50.30698 | 8.41295 | 21451 ft | 391 kts | 18° |
| 2026-05-07 14:49 | 50.33220 | 8.42680 | 22061 ft | 394 kts | 18° |
| 2026-05-07 14:49 | 50.35472 | 8.43932 | 22605 ft | 397 kts | 18° |
| 2026-05-07 14:49 | 50.38091 | 8.45391 | 23206 ft | 401 kts | 18° |
| 2026-05-07 14:50 | 50.40730 | 8.46848 | 23765 ft | 404 kts | 18° |
| 2026-05-07 14:50 | 50.43297 | 8.48256 | 24226 ft | 407 kts | 18° |
| 2026-05-07 14:50 | 50.45982 | 8.49721 | 24706 ft | 410 kts | 18° |
| 2026-05-07 14:50 | 50.48688 | 8.51175 | 25177 ft | 412 kts | 17° |
| 2026-05-07 14:51 | 50.51415 | 8.52542 | 25637 ft | 415 kts | 16° |
| 2026-05-07 14:51 | 50.54197 | 8.53865 | 26087 ft | 417 kts | 15° |
| 2026-05-07 14:51 | 50.56043 | 8.54720 | 26378 ft | 419 kts | 15° |
| 2026-05-07 14:51 | 50.56580 | 8.54968 | 26465 ft | 419 kts | 15° |